sensor_id;sensor_type;location;lat;lon;timestamp;pressure;altitude;pressure_sealevel;temperature;humidity
75290;BME280;63883;48.996;20.804;2024-01-15T00:02:17;95038.69;;;-2.01;100.00
75290;BME280;63883;48.996;20.804;2024-01-15T00:04:43;95035.31;;;-1.94;100.00
75290;BME280;63883;48.996;20.804;2024-01-15T00:07:08;95017.13;;;-2.17;100.00
75290;BME280;63883;48.996;20.804;2024-01-15T00:09:35;95027.16;;;-2.26;100.00
75290;BME280;63883;48.996;20.804;2024-01-15T00:12:01;95033.81;;;-2.25;100.00
75290;BME280;63883;48.996;20.804;2024-01-15T00:14:27;95029.63;;;-2.22;100.00
75290;BME280;63883;48.996;20.804;2024-01-15T00:16:53;95033.72;;;-2.03;100.00
75290;BME280;63883;48.996;20.804;2024-01-15T00:19:24;95038.66;;;-1.92;100.00
75290;BME280;63883;48.996;20.804;2024-01-15T00:21:50;95032.03;;;-1.96;100.00
75290;BME280;63883;48.996;20.804;2024-01-15T00:24:15;95037.78;;;-1.80;100.00
75290;BME280;63883;48.996;20.804;2024-01-15T00:26:41;95026.06;;;-1.68;100.00
75290;BME280;63883;48.996;20.804;2024-01-15T00:29:07;95021.00;;;-1.60;100.00
75290;BME280;63883;48.996;20.804;2024-01-15T00:31:33;95029.31;;;-1.53;100.00
75290;BME280;63883;48.996;20.804;2024-01-15T00:33:59;95022.53;;;-1.41;100.00
75290;BME280;63883;48.996;20.804;2024-01-15T00:36:25;95020.84;;;-1.34;100.00
75290;BME280;63883;48.996;20.804;2024-01-15T00:38:51;95029.13;;;-1.28;100.00
75290;BME280;63883;48.996;20.804;2024-01-15T00:41:17;95021.66;;;-1.31;100.00
75290;BME280;63883;48.996;20.804;2024-01-15T00:43:44;95019.97;;;-1.30;100.00
75290;BME280;63883;48.996;20.804;2024-01-15T00:46:10;95022.44;;;-1.29;100.00
75290;BME280;63883;48.996;20.804;2024-01-15T00:48:36;95010.78;;;-1.27;100.00
75290;BME280;63883;48.996;20.804;2024-01-15T00:51:02;95022.38;;;-1.18;100.00
75290;BME280;63883;48.996;20.804;2024-01-15T00:53:27;95016.56;;;-1.19;100.00
75290;BME280;63883;48.996;20.804;2024-01-15T00:55:53;95014.94;;;-1.23;100.00
75290;BME280;63883;48.996;20.804;2024-01-15T00:58:19;95006.63;;;-1.28;100.00
75290;BME280;63883;48.996;20.804;2024-01-15T01:00:44;95015.00;;;-1.30;100.00
75290;BME280;63883;48.996;20.804;2024-01-15T01:03:10;95011.66;;;-1.35;100.00
75290;BME280;63883;48.996;20.804;2024-01-15T01:05:36;95013.28;;;-1.28;100.00
75290;BME280;63883;48.996;20.804;2024-01-15T01:08:02;95014.88;;;-1.20;100.00
75290;BME280;63883;48.996;20.804;2024-01-15T01:10:27;95014.84;;;-1.15;100.00
75290;BME280;63883;48.996;20.804;2024-01-15T01:12:53;95007.38;;;-1.16;100.00
75290;BME280;63883;48.996;20.804;2024-01-15T01:15:19;94994.81;;;-1.12;100.00
75290;BME280;63883;48.996;20.804;2024-01-15T01:17:45;94991.56;;;-1.20;100.00
75290;BME280;63883;48.996;20.804;2024-01-15T01:20:12;94979.94;;;-1.24;100.00
75290;BME280;63883;48.996;20.804;2024-01-15T01:22:38;94983.22;;;-1.21;100.00
75290;BME280;63883;48.996;20.804;2024-01-15T01:25:04;94988.28;;;-1.27;100.00
75290;BME280;63883;48.996;20.804;2024-01-15T01:27:30;94994.09;;;-1.23;100.00
75290;BME280;63883;48.996;20.804;2024-01-15T01:29:55;94992.44;;;-1.29;100.00
75290;BME280;63883;48.996;20.804;2024-01-15T01:32:21;94983.31;;;-1.31;100.00
75290;BME280;63883;48.996;20.804;2024-01-15T01:34:47;94981.75;;;-1.44;100.00
75290;BME280;63883;48.996;20.804;2024-01-15T01:37:13;94980.09;;;-1.50;100.00
75290;BME280;63883;48.996;20.804;2024-01-15T01:39:40;94975.97;;;-1.54;100.00
75290;BME280;63883;48.996;20.804;2024-01-15T01:42:06;94982.69;;;-1.59;100.00
75290;BME280;63883;48.996;20.804;2024-01-15T01:44:31;94981.06;;;-1.66;100.00
75290;BME280;63883;48.996;20.804;2024-01-15T01:46:58;94973.53;;;-1.62;100.00
75290;BME280;63883;48.996;20.804;2024-01-15T01:49:25;94966.91;;;-1.67;100.00
75290;BME280;63883;48.996;20.804;2024-01-15T01:51:52;94963.59;;;-1.72;100.00
75290;BME280;63883;48.996;20.804;2024-01-15T01:54:19;94955.25;;;-1.70;100.00
75290;BME280;63883;48.996;20.804;2024-01-15T01:56:47;94952.72;;;-1.64;100.00
75290;BME280;63883;48.996;20.804;2024-01-15T01:59:14;94955.19;;;-1.61;100.00
75290;BME280;63883;48.996;20.804;2024-01-15T02:01:40;94947.72;;;-1.61;100.00
75290;BME280;63883;48.996;20.804;2024-01-15T02:04:07;94941.09;;;-1.68;100.00
75290;BME280;63883;48.996;20.804;2024-01-15T02:06:34;94940.25;;;-1.70;100.00
75290;BME280;63883;48.996;20.804;2024-01-15T02:08:59;94941.09;;;-1.71;100.00
75290;BME280;63883;48.996;20.804;2024-01-15T02:11:26;94944.47;;;-1.78;100.00
75290;BME280;63883;48.996;20.804;2024-01-15T02:13:52;94926.19;;;-1.83;100.00
75290;BME280;63883;48.996;20.804;2024-01-15T02:16:17;94917.78;;;-1.71;100.00
75290;BME280;63883;48.996;20.804;2024-01-15T02:18:44;94913.66;;;-1.80;100.00
75290;BME280;63883;48.996;20.804;2024-01-15T02:21:10;94913.66;;;-1.80;100.00
75290;BME280;63883;48.996;20.804;2024-01-15T02:23:38;94916.22;;;-1.86;100.00
75290;BME280;63883;48.996;20.804;2024-01-15T02:26:05;94906.28;;;-1.93;100.00
75290;BME280;63883;48.996;20.804;2024-01-15T02:28:32;94906.34;;;-2.03;100.00
75290;BME280;63883;48.996;20.804;2024-01-15T02:30:58;94908.06;;;-2.11;100.00
75290;BME280;63883;48.996;20.804;2024-01-15T02:33:24;94915.56;;;-2.15;100.00
75290;BME280;63883;48.996;20.804;2024-01-15T02:35:49;94909.78;;;-2.17;100.00
75290;BME280;63883;48.996;20.804;2024-01-15T02:38:15;94904.69;;;-2.05;100.00
75290;BME280;63883;48.996;20.804;2024-01-15T02:40:43;94903.88;;;-2.09;100.00
75290;BME280;63883;48.996;20.804;2024-01-15T02:43:09;94902.16;;;-1.99;100.00
75290;BME280;63883;48.996;20.804;2024-01-15T02:45:35;94905.44;;;-1.92;100.00
75290;BME280;63883;48.996;20.804;2024-01-15T02:48:00;94897.09;;;-1.91;100.00
75290;BME280;63883;48.996;20.804;2024-01-15T02:50:26;94898.66;;;-1.77;100.00
75290;BME280;63883;48.996;20.804;2024-01-15T02:52:52;94892.75;;;-1.64;100.00
75290;BME280;63883;48.996;20.804;2024-01-15T02:55:18;94893.56;;;-1.62;100.00
75290;BME280;63883;48.996;20.804;2024-01-15T02:57:43;94881.06;;;-1.65;100.00
75290;BME280;63883;48.996;20.804;2024-01-15T03:00:10;94881.06;;;-1.62;100.00
75290;BME280;63883;48.996;20.804;2024-01-15T03:02:37;94879.34;;;-1.55;100.00
75290;BME280;63883;48.996;20.804;2024-01-15T03:05:06;94869.34;;;-1.57;100.00
75290;BME280;63883;48.996;20.804;2024-01-15T03:07:32;94864.34;;;-1.53;100.00
75290;BME280;63883;48.996;20.804;2024-01-15T03:09:59;94850.19;;;-1.58;100.00
75290;BME280;63883;48.996;20.804;2024-01-15T03:12:24;94851.84;;;-1.57;100.00
75290;BME280;63883;48.996;20.804;2024-01-15T03:14:50;94856.84;;;-1.55;100.00
75290;BME280;63883;48.996;20.804;2024-01-15T03:17:15;94861.84;;;-1.57;100.00
75290;BME280;63883;48.996;20.804;2024-01-15T03:19:41;94851.91;;;-1.60;100.00
75290;BME280;63883;48.996;20.804;2024-01-15T03:22:07;94855.25;;;-1.64;100.00
75290;BME280;63883;48.996;20.804;2024-01-15T03:24:34;94846.94;;;-1.64;100.00
75290;BME280;63883;48.996;20.804;2024-01-15T03:27:01;94848.59;;;-1.62;100.00
75290;BME280;63883;48.996;20.804;2024-01-15T03:29:27;94844.47;;;-1.69;100.00
75290;BME280;63883;48.996;20.804;2024-01-15T03:31:52;94850.25;;;-1.64;100.00
75290;BME280;63883;48.996;20.804;2024-01-15T03:34:18;94851.97;;;-1.67;100.00
75290;BME280;63883;48.996;20.804;2024-01-15T03:36:44;94844.53;;;-1.75;100.00
75290;BME280;63883;48.996;20.804;2024-01-15T03:39:09;94857.03;;;-1.75;100.00
75290;BME280;63883;48.996;20.804;2024-01-15T03:41:35;94851.19;;;-1.77;100.00
75290;BME280;63883;48.996;20.804;2024-01-15T03:44:01;94860.38;;;-1.76;100.00
75290;BME280;63883;48.996;20.804;2024-01-15T03:46:27;94856.25;;;-1.83;100.00
75290;BME280;63883;48.996;20.804;2024-01-15T03:48:53;94852.91;;;-1.83;100.00
75290;BME280;63883;48.996;20.804;2024-01-15T03:51:18;94847.16;;;-1.90;100.00
75290;BME280;63883;48.996;20.804;2024-01-15T03:53:44;94844.66;;;-1.90;100.00
75290;BME280;63883;48.996;20.804;2024-01-15T03:56:10;94835.56;;;-2.02;100.00
75290;BME280;63883;48.996;20.804;2024-01-15T03:58:36;94828.09;;;-2.03;100.00
75290;BME280;63883;48.996;20.804;2024-01-15T04:01:02;94822.25;;;-2.01;100.00
75290;BME280;63883;48.996;20.804;2024-01-15T04:03:27;94819.75;;;-2.01;100.00
75290;BME280;63883;48.996;20.804;2024-01-15T04:05:53;94813.06;;;-1.95;100.00
75290;BME280;63883;48.996;20.804;2024-01-15T04:08:19;94809.78;;;-2.04;100.00
75290;BME280;63883;48.996;20.804;2024-01-15T04:10:45;94818.13;;;-2.03;100.00
75290;BME280;63883;48.996;20.804;2024-01-15T04:13:10;94807.34;;;-2.10;100.00
75290;BME280;63883;48.996;20.804;2024-01-15T04:15:36;94810.63;;;-2.03;100.00
75290;BME280;63883;48.996;20.804;2024-01-15T04:18:03;94808.13;;;-2.06;100.00
75290;BME280;63883;48.996;20.804;2024-01-15T04:20:29;94810.59;;;-2.02;100.00
75290;BME280;63883;48.996;20.804;2024-01-15T04:22:55;94806.53;;;-2.12;100.00
75290;BME280;63883;48.996;20.804;2024-01-15T04:25:20;94803.31;;;-2.27;100.00
75290;BME280;63883;48.996;20.804;2024-01-15T04:27:46;94794.97;;;-2.26;100.00
75290;BME280;63883;48.996;20.804;2024-01-15T04:30:12;94791.75;;;-2.42;100.00
75290;BME280;63883;48.996;20.804;2024-01-15T04:32:38;94790.97;;;-2.49;100.00
75290;BME280;63883;48.996;20.804;2024-01-15T04:35:04;94786.09;;;-2.67;100.00
75290;BME280;63883;48.996;20.804;2024-01-15T04:37:29;94789.59;;;-2.98;100.00
75290;BME280;63883;48.996;20.804;2024-01-15T04:39:55;94792.13;;;-3.12;100.00
75290;BME280;63883;48.996;20.804;2024-01-15T04:42:23;94784.69;;;-3.20;100.00
75290;BME280;63883;48.996;20.804;2024-01-15T04:44:48;94796.38;;;-3.35;100.00
75290;BME280;63883;48.996;20.804;2024-01-15T04:47:14;94792.25;;;-3.48;100.00
75290;BME280;63883;48.996;20.804;2024-01-15T04:49:40;94788.09;;;-3.51;100.00
75290;BME280;63883;48.996;20.804;2024-01-15T04:52:06;94782.31;;;-3.56;100.00
75290;BME280;63883;48.996;20.804;2024-01-15T04:54:31;94790.63;;;-3.65;100.00
75290;BME280;63883;48.996;20.804;2024-01-15T04:56:57;94792.31;;;-3.74;100.00
75290;BME280;63883;48.996;20.804;2024-01-15T04:59:23;94792.34;;;-3.83;100.00
75290;BME280;63883;48.996;20.804;2024-01-15T05:01:49;94791.53;;;-3.98;100.00
75290;BME280;63883;48.996;20.804;2024-01-15T05:04:15;94797.31;;;-4.03;100.00
75290;BME280;63883;48.996;20.804;2024-01-15T05:06:40;94786.53;;;-4.07;100.00
75290;BME280;63883;48.996;20.804;2024-01-15T05:09:06;94791.50;;;-4.10;100.00
75290;BME280;63883;48.996;20.804;2024-01-15T05:11:32;94789.03;;;-4.10;100.00
75290;BME280;63883;48.996;20.804;2024-01-15T05:13:58;94766.66;;;-4.19;100.00
75290;BME280;63883;48.996;20.804;2024-01-15T05:16:24;94774.94;;;-4.15;100.00
75290;BME280;63883;48.996;20.804;2024-01-15T05:18:49;94766.66;;;-4.19;100.00
75290;BME280;63883;48.996;20.804;2024-01-15T05:21:15;94760.84;;;-4.19;100.00
75290;BME280;63883;48.996;20.804;2024-01-15T05:23:41;94754.19;;;-4.22;100.00
75290;BME280;63883;48.996;20.804;2024-01-15T05:26:07;94757.50;;;-4.14;100.00
75290;BME280;63883;48.996;20.804;2024-01-15T05:28:34;94754.19;;;-4.22;100.00
75290;BME280;63883;48.996;20.804;2024-01-15T05:31:01;94769.94;;;-4.23;100.00
75290;BME280;63883;48.996;20.804;2024-01-15T05:33:26;94776.59;;;-4.20;100.00
75290;BME280;63883;48.996;20.804;2024-01-15T05:35:52;94777.44;;;-4.26;100.00
75290;BME280;63883;48.996;20.804;2024-01-15T05:38:19;94778.25;;;-4.30;100.00
75290;BME280;63883;48.996;20.804;2024-01-15T05:40:45;94769.97;;;-4.35;100.00
75290;BME280;63883;48.996;20.804;2024-01-15T05:43:10;94765.00;;;-4.41;100.00
75290;BME280;63883;48.996;20.804;2024-01-15T05:45:38;94773.28;;;-4.48;100.00
75290;BME280;63883;48.996;20.804;2024-01-15T05:48:04;94769.94;;;-4.53;100.00
75290;BME280;63883;48.996;20.804;2024-01-15T05:50:30;94774.09;;;-4.57;100.00
75290;BME280;63883;48.996;20.804;2024-01-15T05:52:55;94774.06;;;-4.60;100.00
75290;BME280;63883;48.996;20.804;2024-01-15T05:55:21;94769.94;;;-4.68;100.00
75290;BME280;63883;48.996;20.804;2024-01-15T05:57:46;94767.44;;;-4.72;100.00
75290;BME280;63883;48.996;20.804;2024-01-15T06:00:13;94767.44;;;-4.75;100.00
75290;BME280;63883;48.996;20.804;2024-01-15T06:02:39;94758.34;;;-4.76;100.00
75290;BME280;63883;48.996;20.804;2024-01-15T06:05:05;94760.78;;;-4.89;100.00
75290;BME280;63883;48.996;20.804;2024-01-15T06:07:33;94762.41;;;-4.96;100.00
75290;BME280;63883;48.996;20.804;2024-01-15T06:09:59;94763.25;;;-5.04;100.00
75290;BME280;63883;48.996;20.804;2024-01-15T06:12:24;94755.75;;;-5.09;100.00
75290;BME280;63883;48.996;20.804;2024-01-15T06:14:50;94756.59;;;-5.13;100.00
75290;BME280;63883;48.996;20.804;2024-01-15T06:17:16;94754.06;;;-5.28;100.00
75290;BME280;63883;48.996;20.804;2024-01-15T06:19:41;94752.38;;;-5.35;100.00
75290;BME280;63883;48.996;20.804;2024-01-15T06:22:07;94754.88;;;-5.34;100.00
75290;BME280;63883;48.996;20.804;2024-01-15T06:24:33;94740.75;;;-5.39;100.00
75290;BME280;63883;48.996;20.804;2024-01-15T06:26:59;94743.25;;;-5.39;100.00
75290;BME280;63883;48.996;20.804;2024-01-15T06:29:26;94741.53;;;-5.53;100.00
75290;BME280;63883;48.996;20.804;2024-01-15T06:31:52;94743.16;;;-5.62;100.00
75290;BME280;63883;48.996;20.804;2024-01-15T06:34:17;94739.81;;;-5.69;100.00
75290;BME280;63883;48.996;20.804;2024-01-15T06:36:43;94740.66;;;-5.65;100.00
75290;BME280;63883;48.996;20.804;2024-01-15T06:39:09;94733.16;;;-5.79;100.00
75290;BME280;63883;48.996;20.804;2024-01-15T06:41:35;94724.00;;;-5.95;100.00
75290;BME280;63883;48.996;20.804;2024-01-15T06:44:07;94743.00;;;-5.99;100.00
75290;BME280;63883;48.996;20.804;2024-01-15T06:46:34;94747.13;;;-6.01;100.00
75290;BME280;63883;48.996;20.804;2024-01-15T06:49:00;94743.78;;;-6.04;100.00
75290;BME280;63883;48.996;20.804;2024-01-15T06:51:25;94745.44;;;-6.06;100.00
75290;BME280;63883;48.996;20.804;2024-01-15T06:53:51;94744.56;;;-6.11;100.00
75290;BME280;63883;48.996;20.804;2024-01-15T06:56:17;94737.97;;;-6.14;100.00
75290;BME280;63883;48.996;20.804;2024-01-15T06:58:42;94748.66;;;-6.18;100.00
75290;BME280;63883;48.996;20.804;2024-01-15T07:01:08;94753.63;;;-6.18;100.00
75290;BME280;63883;48.996;20.804;2024-01-15T07:03:34;94745.38;;;-6.17;100.00
75290;BME280;63883;48.996;20.804;2024-01-15T07:05:59;94740.38;;;-6.18;100.00
75290;BME280;63883;48.996;20.804;2024-01-15T07:08:26;94736.22;;;-6.25;100.00
75290;BME280;63883;48.996;20.804;2024-01-15T07:10:51;94741.19;;;-6.19;100.00
75290;BME280;63883;48.996;20.804;2024-01-15T07:13:17;94739.56;;;-6.17;100.00
75290;BME280;63883;48.996;20.804;2024-01-15T07:15:43;94739.63;;;-6.08;100.00
75290;BME280;63883;48.996;20.804;2024-01-15T07:18:08;94752.13;;;-5.93;100.00
75290;BME280;63883;48.996;20.804;2024-01-15T07:20:34;94741.38;;;-5.86;100.00
75290;BME280;63883;48.996;20.804;2024-01-15T07:23:00;94746.41;;;-5.77;100.00
75290;BME280;63883;48.996;20.804;2024-01-15T07:25:25;94738.97;;;-5.77;100.00
75290;BME280;63883;48.996;20.804;2024-01-15T07:27:51;94738.16;;;-5.73;100.00
75290;BME280;63883;48.996;20.804;2024-01-15T07:30:19;94730.75;;;-5.61;100.00
75290;BME280;63883;48.996;20.804;2024-01-15T07:32:44;94737.41;;;-5.46;100.00
75290;BME280;63883;48.996;20.804;2024-01-15T07:35:10;94740.78;;;-5.26;100.00
75290;BME280;63883;48.996;20.804;2024-01-15T07:37:36;94723.47;;;-5.09;100.00
75290;BME280;63883;48.996;20.804;2024-01-15T07:40:02;94721.84;;;-4.99;100.00
75290;BME280;63883;48.996;20.804;2024-01-15T07:42:30;94725.16;;;-4.81;100.00
75290;BME280;63883;48.996;20.804;2024-01-15T07:44:55;94721.03;;;-4.63;100.00
75290;BME280;63883;48.996;20.804;2024-01-15T07:47:21;94721.03;;;-4.42;100.00
75290;BME280;63883;48.996;20.804;2024-01-15T07:49:46;94711.91;;;-4.22;100.00
75290;BME280;63883;48.996;20.804;2024-01-15T07:52:12;94718.50;;;-4.09;100.00
75290;BME280;63883;48.996;20.804;2024-01-15T07:54:39;94706.91;;;-4.07;100.00
75290;BME280;63883;48.996;20.804;2024-01-15T07:57:04;94716.88;;;-4.04;100.00
75290;BME280;63883;48.996;20.804;2024-01-15T07:59:30;94726.78;;;-3.82;100.00
75290;BME280;63883;48.996;20.804;2024-01-15T08:01:59;94728.31;;;-3.48;100.00
75290;BME280;63883;48.996;20.804;2024-01-15T08:04:24;94725.75;;;-3.25;100.00
75290;BME280;63883;48.996;20.804;2024-01-15T08:06:50;94725.56;;;-2.95;100.00
75290;BME280;63883;48.996;20.804;2024-01-15T08:09:16;94723.50;;;-2.35;100.00
75290;BME280;63883;48.996;20.804;2024-01-15T08:11:42;94733.69;;;-1.68;100.00
75290;BME280;63883;48.996;20.804;2024-01-15T08:14:09;94736.19;;;-0.96;100.00
75290;BME280;63883;48.996;20.804;2024-01-15T08:16:36;94735.34;;;0.14;92.76
75290;BME280;63883;48.996;20.804;2024-01-15T08:19:02;94737.31;;;0.88;86.16
75290;BME280;63883;48.996;20.804;2024-01-15T08:21:28;94735.69;;;1.25;80.17
75290;BME280;63883;48.996;20.804;2024-01-15T08:24:01;94727.63;;;1.86;76.60
75290;BME280;63883;48.996;20.804;2024-01-15T08:26:30;94729.38;;;1.83;76.93
75290;BME280;63883;48.996;20.804;2024-01-15T08:28:57;94717.78;;;2.11;75.54
75290;BME280;63883;48.996;20.804;2024-01-15T08:31:24;94722.81;;;2.11;77.37
75290;BME280;63883;48.996;20.804;2024-01-15T08:33:49;94712.78;;;2.44;75.93
75290;BME280;63883;48.996;20.804;2024-01-15T08:36:15;94720.69;;;2.61;72.21
75290;BME280;63883;48.996;20.804;2024-01-15T08:38:41;94714.25;;;2.51;71.11
75290;BME280;63883;48.996;20.804;2024-01-15T08:41:06;94715.22;;;2.45;73.22
75290;BME280;63883;48.996;20.804;2024-01-15T08:43:34;94704.06;;;3.16;70.51
75290;BME280;63883;48.996;20.804;2024-01-15T08:46:00;94706.06;;;2.10;73.44
75290;BME280;63883;48.996;20.804;2024-01-15T08:48:26;94701.50;;;2.88;70.32
75290;BME280;63883;48.996;20.804;2024-01-15T08:50:55;94700.03;;;2.17;71.55
75290;BME280;63883;48.996;20.804;2024-01-15T08:53:20;94708.59;;;1.76;75.31
75290;BME280;63883;48.996;20.804;2024-01-15T08:55:47;94719.09;;;1.92;75.03
75290;BME280;63883;48.996;20.804;2024-01-15T08:58:13;94717.34;;;1.60;75.94
75290;BME280;63883;48.996;20.804;2024-01-15T09:00:39;94712.88;;;1.36;77.08
75290;BME280;63883;48.996;20.804;2024-01-15T09:03:05;94710.31;;;1.74;74.79
75290;BME280;63883;48.996;20.804;2024-01-15T09:05:31;94711.63;;;1.53;74.41
75290;BME280;63883;48.996;20.804;2024-01-15T09:07:57;94715.25;;;1.79;71.85
75290;BME280;63883;48.996;20.804;2024-01-15T09:10:23;94718.16;;;2.30;69.30
75290;BME280;63883;48.996;20.804;2024-01-15T09:12:49;94724.34;;;1.83;69.80
75290;BME280;63883;48.996;20.804;2024-01-15T09:15:15;94713.69;;;2.40;67.97
75290;BME280;63883;48.996;20.804;2024-01-15T09:17:40;94715.28;;;2.44;67.83
75290;BME280;63883;48.996;20.804;2024-01-15T09:20:08;94717.19;;;2.35;69.75
75290;BME280;63883;48.996;20.804;2024-01-15T09:22:35;94717.72;;;2.47;68.80
75290;BME280;63883;48.996;20.804;2024-01-15T09:25:01;94724.09;;;2.27;68.80
75290;BME280;63883;48.996;20.804;2024-01-15T09:27:27;94729.97;;;2.26;68.67
75290;BME280;63883;48.996;20.804;2024-01-15T09:29:53;94721.97;;;2.11;70.27
75290;BME280;63883;48.996;20.804;2024-01-15T09:32:18;94719.47;;;2.11;72.17
75290;BME280;63883;48.996;20.804;2024-01-15T09:34:45;94716.69;;;2.21;73.63
75290;BME280;63883;48.996;20.804;2024-01-15T09:37:12;94716.22;;;2.40;71.29
75290;BME280;63883;48.996;20.804;2024-01-15T09:39:38;94715.50;;;2.02;73.44
75290;BME280;63883;48.996;20.804;2024-01-15T09:42:04;94716.38;;;2.01;74.09
75290;BME280;63883;48.996;20.804;2024-01-15T09:44:30;94715.88;;;1.87;75.96
75290;BME280;63883;48.996;20.804;2024-01-15T09:46:57;94706.94;;;1.75;78.94
75290;BME280;63883;48.996;20.804;2024-01-15T09:49:23;94708.72;;;1.72;80.87
75290;BME280;63883;48.996;20.804;2024-01-15T09:51:49;94705.28;;;1.74;77.79
75290;BME280;63883;48.996;20.804;2024-01-15T09:54:16;94713.81;;;1.30;81.15
75290;BME280;63883;48.996;20.804;2024-01-15T09:56:45;94703.78;;;1.30;81.49
75290;BME280;63883;48.996;20.804;2024-01-15T09:59:18;94699.00;;;0.79;83.95
75290;BME280;63883;48.996;20.804;2024-01-15T10:01:45;94699.50;;;0.97;85.29
75290;BME280;63883;48.996;20.804;2024-01-15T10:04:11;94697.41;;;1.15;86.04
75290;BME280;63883;48.996;20.804;2024-01-15T10:06:40;94691.00;;;1.02;84.51
75290;BME280;63883;48.996;20.804;2024-01-15T10:09:09;94682.31;;;1.17;79.21
75290;BME280;63883;48.996;20.804;2024-01-15T10:11:34;94684.28;;;1.41;73.66
75290;BME280;63883;48.996;20.804;2024-01-15T10:14:01;94673.53;;;1.36;74.03
75290;BME280;63883;48.996;20.804;2024-01-15T10:16:26;94662.81;;;1.65;72.59
75290;BME280;63883;48.996;20.804;2024-01-15T10:18:52;94663.97;;;2.18;70.18
75290;BME280;63883;48.996;20.804;2024-01-15T10:21:18;94662.53;;;3.01;66.20
75290;BME280;63883;48.996;20.804;2024-01-15T10:23:43;94667.59;;;3.81;62.57
75290;BME280;63883;48.996;20.804;2024-01-15T10:26:09;94666.84;;;4.29;59.39
75290;BME280;63883;48.996;20.804;2024-01-15T10:28:37;94670.03;;;5.71;53.66
75290;BME280;63883;48.996;20.804;2024-01-15T10:31:03;94655.69;;;5.71;52.12
75290;BME280;63883;48.996;20.804;2024-01-15T10:33:29;94653.38;;;5.00;52.58
75290;BME280;63883;48.996;20.804;2024-01-15T10:36:00;94641.63;;;5.42;53.58
75290;BME280;63883;48.996;20.804;2024-01-15T10:38:26;94650.00;;;5.88;50.62
75290;BME280;63883;48.996;20.804;2024-01-15T10:40:56;94634.06;;;6.26;50.52
75290;BME280;63883;48.996;20.804;2024-01-15T10:43:22;94635.13;;;6.01;50.01
75290;BME280;63883;48.996;20.804;2024-01-15T10:45:49;94645.91;;;7.21;47.61
75290;BME280;63883;48.996;20.804;2024-01-15T10:48:17;94648.53;;;6.82;46.16
75290;BME280;63883;48.996;20.804;2024-01-15T10:50:47;94643.91;;;7.47;46.73
75290;BME280;63883;48.996;20.804;2024-01-15T10:53:15;94643.91;;;7.28;47.84
75290;BME280;63883;48.996;20.804;2024-01-15T10:55:41;94648.03;;;7.30;46.63
75290;BME280;63883;48.996;20.804;2024-01-15T10:58:09;94643.00;;;7.12;47.05
75290;BME280;63883;48.996;20.804;2024-01-15T11:00:35;94638.22;;;8.79;42.34
75290;BME280;63883;48.996;20.804;2024-01-15T11:03:05;94636.84;;;8.89;41.46
75290;BME280;63883;48.996;20.804;2024-01-15T11:05:38;94635.66;;;8.64;41.79
75290;BME280;63883;48.996;20.804;2024-01-15T11:08:08;94633.66;;;8.53;40.14
75290;BME280;63883;48.996;20.804;2024-01-15T11:10:41;94634.91;;;7.93;42.12
75290;BME280;63883;48.996;20.804;2024-01-15T11:13:13;94629.34;;;7.50;42.35
75290;BME280;63883;48.996;20.804;2024-01-15T11:16:02;94623.66;;;7.98;40.87
75290;BME280;63883;48.996;20.804;2024-01-15T11:18:39;94621.06;;;7.11;44.04
75290;BME280;63883;48.996;20.804;2024-01-15T11:28:53;94623.00;;;7.05;42.98
75290;BME280;63883;48.996;20.804;2024-01-15T11:31:19;94608.94;;;6.61;43.99
75290;BME280;63883;48.996;20.804;2024-01-15T11:33:49;94614.00;;;6.02;45.37
75290;BME280;63883;48.996;20.804;2024-01-15T11:36:15;94604.69;;;6.80;44.42
75290;BME280;63883;48.996;20.804;2024-01-15T11:38:41;94598.69;;;6.44;45.05
75290;BME280;63883;48.996;20.804;2024-01-15T11:41:16;94594.88;;;5.74;46.83
75290;BME280;63883;48.996;20.804;2024-01-15T11:43:41;94592.81;;;5.20;48.68
75290;BME280;63883;48.996;20.804;2024-01-15T11:46:11;94601.69;;;5.08;49.52
75290;BME280;63883;48.996;20.804;2024-01-15T11:48:44;94597.00;;;4.06;51.60
75290;BME280;63883;48.996;20.804;2024-01-15T11:51:11;94590.41;;;3.77;53.04
75290;BME280;63883;48.996;20.804;2024-01-15T11:53:45;94580.09;;;3.83;51.44
75290;BME280;63883;48.996;20.804;2024-01-15T11:56:16;94580.00;;;5.03;48.99
75290;BME280;63883;48.996;20.804;2024-01-15T11:58:43;94578.66;;;6.58;45.82
75290;BME280;63883;48.996;20.804;2024-01-15T12:01:10;94576.00;;;6.98;44.94
75290;BME280;63883;48.996;20.804;2024-01-15T12:03:36;94579.38;;;7.87;42.25
75290;BME280;63883;48.996;20.804;2024-01-15T12:06:05;94579.97;;;8.09;41.38
75290;BME280;63883;48.996;20.804;2024-01-15T12:08:31;94584.81;;;7.27;42.97
75290;BME280;63883;48.996;20.804;2024-01-15T12:10:56;94581.06;;;6.61;44.98
75290;BME280;63883;48.996;20.804;2024-01-15T12:13:22;94574.53;;;7.65;42.05
75290;BME280;63883;48.996;20.804;2024-01-15T12:15:48;94575.47;;;8.48;40.43
75290;BME280;63883;48.996;20.804;2024-01-15T12:18:16;94579.16;;;7.74;41.08
75290;BME280;63883;48.996;20.804;2024-01-15T12:20:42;94571.66;;;7.19;42.46
75290;BME280;63883;48.996;20.804;2024-01-15T12:23:09;94591.66;;;6.50;43.27
75290;BME280;63883;48.996;20.804;2024-01-15T12:25:36;94595.03;;;6.51;43.61
75290;BME280;63883;48.996;20.804;2024-01-15T12:28:02;94583.41;;;6.84;43.54
75290;BME280;63883;48.996;20.804;2024-01-15T12:30:30;94584.03;;;7.61;41.68
75290;BME280;63883;48.996;20.804;2024-01-15T12:33:01;94582.88;;;8.01;40.43
75290;BME280;63883;48.996;20.804;2024-01-15T12:35:29;94581.34;;;7.28;42.60
75290;BME280;63883;48.996;20.804;2024-01-15T12:37:55;94583.41;;;7.39;41.96
75290;BME280;63883;48.996;20.804;2024-01-15T12:40:22;94569.97;;;7.89;41.38
75290;BME280;63883;48.996;20.804;2024-01-15T12:42:48;94585.00;;;8.43;39.71
75290;BME280;63883;48.996;20.804;2024-01-15T12:45:14;94586.16;;;8.38;38.81
75290;BME280;63883;48.996;20.804;2024-01-15T12:47:40;94582.84;;;6.96;41.64
75290;BME280;63883;48.996;20.804;2024-01-15T12:50:10;94596.56;;;7.28;42.56
75290;BME280;63883;48.996;20.804;2024-01-15T12:52:37;94590.03;;;6.87;42.49